sensor_id;sensor_type;location;lat;lon;timestamp;temperature;humidity
3996;DHT22;2012;49.794;9.722;2023-05-31T00:01:46;14.80;99.90
3996;DHT22;2012;49.794;9.722;2023-05-31T00:04:14;15.00;99.90
3996;DHT22;2012;49.794;9.722;2023-05-31T00:06:41;15.10;99.90
3996;DHT22;2012;49.794;9.722;2023-05-31T00:09:08;15.30;99.90
3996;DHT22;2012;49.794;9.722;2023-05-31T00:11:35;15.30;99.90
3996;DHT22;2012;49.794;9.722;2023-05-31T00:14:02;15.30;99.90
3996;DHT22;2012;49.794;9.722;2023-05-31T00:16:29;15.30;99.90
3996;DHT22;2012;49.794;9.722;2023-05-31T00:18:59;15.40;99.90
3996;DHT22;2012;49.794;9.722;2023-05-31T00:21:26;15.60;99.90
3996;DHT22;2012;49.794;9.722;2023-05-31T00:23:53;15.60;99.90
3996;DHT22;2012;49.794;9.722;2023-05-31T00:26:21;15.30;99.90
3996;DHT22;2012;49.794;9.722;2023-05-31T00:28:50;15.20;99.90
3996;DHT22;2012;49.794;9.722;2023-05-31T00:31:17;14.90;99.90
3996;DHT22;2012;49.794;9.722;2023-05-31T00:33:45;14.70;99.90
3996;DHT22;2012;49.794;9.722;2023-05-31T00:36:12;14.30;99.90
3996;DHT22;2012;49.794;9.722;2023-05-31T00:38:39;14.10;99.90
3996;DHT22;2012;49.794;9.722;2023-05-31T00:41:08;14.10;99.90
3996;DHT22;2012;49.794;9.722;2023-05-31T00:43:37;13.80;99.90
3996;DHT22;2012;49.794;9.722;2023-05-31T00:46:04;13.80;99.90
3996;DHT22;2012;49.794;9.722;2023-05-31T00:48:32;13.50;99.90
3996;DHT22;2012;49.794;9.722;2023-05-31T00:51:00;13.60;99.90
3996;DHT22;2012;49.794;9.722;2023-05-31T00:53:28;13.70;99.90
3996;DHT22;2012;49.794;9.722;2023-05-31T00:55:55;13.60;99.90
3996;DHT22;2012;49.794;9.722;2023-05-31T00:58:24;13.60;99.90
3996;DHT22;2012;49.794;9.722;2023-05-31T01:00:53;13.50;99.90
3996;DHT22;2012;49.794;9.722;2023-05-31T01:03:20;13.30;99.90
3996;DHT22;2012;49.794;9.722;2023-05-31T01:05:47;13.30;99.90
3996;DHT22;2012;49.794;9.722;2023-05-31T01:08:15;13.30;99.90
3996;DHT22;2012;49.794;9.722;2023-05-31T01:10:43;13.20;99.90
3996;DHT22;2012;49.794;9.722;2023-05-31T01:13:19;13.10;99.90
3996;DHT22;2012;49.794;9.722;2023-05-31T01:16:02;13.10;99.90
3996;DHT22;2012;49.794;9.722;2023-05-31T01:18:44;12.80;99.90
3996;DHT22;2012;49.794;9.722;2023-05-31T01:21:18;12.70;99.90
3996;DHT22;2012;49.794;9.722;2023-05-31T01:23:59;12.70;99.90
3996;DHT22;2012;49.794;9.722;2023-05-31T01:26:50;12.90;99.90
3996;DHT22;2012;49.794;9.722;2023-05-31T01:29:21;12.80;99.90
3996;DHT22;2012;49.794;9.722;2023-05-31T01:31:50;12.60;99.90
3996;DHT22;2012;49.794;9.722;2023-05-31T01:34:18;12.60;99.90
3996;DHT22;2012;49.794;9.722;2023-05-31T01:36:45;12.80;99.90
3996;DHT22;2012;49.794;9.722;2023-05-31T01:39:12;12.60;99.90
3996;DHT22;2012;49.794;9.722;2023-05-31T01:41:42;12.50;99.90
3996;DHT22;2012;49.794;9.722;2023-05-31T01:44:11;12.50;99.90
3996;DHT22;2012;49.794;9.722;2023-05-31T01:46:40;12.70;99.90
3996;DHT22;2012;49.794;9.722;2023-05-31T01:49:09;12.50;99.90
3996;DHT22;2012;49.794;9.722;2023-05-31T01:51:37;12.30;99.90
3996;DHT22;2012;49.794;9.722;2023-05-31T01:54:05;12.50;99.90
3996;DHT22;2012;49.794;9.722;2023-05-31T01:56:35;12.50;99.90
3996;DHT22;2012;49.794;9.722;2023-05-31T01:59:04;12.50;99.90
3996;DHT22;2012;49.794;9.722;2023-05-31T02:01:34;12.40;99.90
3996;DHT22;2012;49.794;9.722;2023-05-31T02:04:02;12.30;99.90
3996;DHT22;2012;49.794;9.722;2023-05-31T02:06:29;12.30;99.90
3996;DHT22;2012;49.794;9.722;2023-05-31T02:08:58;12.40;99.90
3996;DHT22;2012;49.794;9.722;2023-05-31T02:11:26;12.30;99.90
3996;DHT22;2012;49.794;9.722;2023-05-31T02:13:55;12.20;99.90
3996;DHT22;2012;49.794;9.722;2023-05-31T02:16:22;12.20;99.90
3996;DHT22;2012;49.794;9.722;2023-05-31T02:18:49;12.10;99.90
3996;DHT22;2012;49.794;9.722;2023-05-31T02:21:21;11.90;99.90
3996;DHT22;2012;49.794;9.722;2023-05-31T02:23:48;12.00;99.90
3996;DHT22;2012;49.794;9.722;2023-05-31T02:26:16;11.90;99.90
3996;DHT22;2012;49.794;9.722;2023-05-31T02:28:43;12.00;99.90
3996;DHT22;2012;49.794;9.722;2023-05-31T02:31:10;12.20;99.90
3996;DHT22;2012;49.794;9.722;2023-05-31T02:33:37;12.10;99.90
3996;DHT22;2012;49.794;9.722;2023-05-31T02:36:06;12.10;99.90
3996;DHT22;2012;49.794;9.722;2023-05-31T02:38:35;11.80;99.90
3996;DHT22;2012;49.794;9.722;2023-05-31T02:41:03;11.80;99.90
3996;DHT22;2012;49.794;9.722;2023-05-31T02:43:30;11.70;99.90
3996;DHT22;2012;49.794;9.722;2023-05-31T02:45:57;11.70;99.90
3996;DHT22;2012;49.794;9.722;2023-05-31T02:48:28;11.60;99.90
3996;DHT22;2012;49.794;9.722;2023-05-31T02:50:56;11.60;99.90
3996;DHT22;2012;49.794;9.722;2023-05-31T02:53:35;11.50;99.90
3996;DHT22;2012;49.794;9.722;2023-05-31T02:56:07;11.40;99.90
3996;DHT22;2012;49.794;9.722;2023-05-31T02:58:53;11.50;99.90
3996;DHT22;2012;49.794;9.722;2023-05-31T03:01:39;11.40;99.90
3996;DHT22;2012;49.794;9.722;2023-05-31T03:04:36;11.50;99.90
3996;DHT22;2012;49.794;9.722;2023-05-31T03:07:03;11.60;99.90
3996;DHT22;2012;49.794;9.722;2023-05-31T03:09:30;11.60;99.90
3996;DHT22;2012;49.794;9.722;2023-05-31T03:11:58;11.60;99.90
3996;DHT22;2012;49.794;9.722;2023-05-31T03:14:26;11.40;99.90
3996;DHT22;2012;49.794;9.722;2023-05-31T03:16:53;11.40;99.90
3996;DHT22;2012;49.794;9.722;2023-05-31T03:19:21;11.40;99.90
3996;DHT22;2012;49.794;9.722;2023-05-31T03:21:51;11.30;99.90
3996;DHT22;2012;49.794;9.722;2023-05-31T03:24:18;11.40;99.90
3996;DHT22;2012;49.794;9.722;2023-05-31T03:26:48;11.30;99.90
3996;DHT22;2012;49.794;9.722;2023-05-31T03:29:15;11.30;99.90
3996;DHT22;2012;49.794;9.722;2023-05-31T03:31:42;11.30;99.90
3996;DHT22;2012;49.794;9.722;2023-05-31T03:34:09;11.40;99.90
3996;DHT22;2012;49.794;9.722;2023-05-31T03:36:36;11.40;99.90
3996;DHT22;2012;49.794;9.722;2023-05-31T03:39:19;11.30;99.90
3996;DHT22;2012;49.794;9.722;2023-05-31T03:41:46;11.10;99.90
3996;DHT22;2012;49.794;9.722;2023-05-31T03:44:13;11.00;99.90
3996;DHT22;2012;49.794;9.722;2023-05-31T03:46:40;11.00;99.90
3996;DHT22;2012;49.794;9.722;2023-05-31T03:49:08;10.90;99.90
3996;DHT22;2012;49.794;9.722;2023-05-31T03:51:34;11.10;99.90
3996;DHT22;2012;49.794;9.722;2023-05-31T03:54:02;11.20;99.90
3996;DHT22;2012;49.794;9.722;2023-05-31T03:56:28;11.30;99.90
3996;DHT22;2012;49.794;9.722;2023-05-31T03:58:56;11.30;99.90
3996;DHT22;2012;49.794;9.722;2023-05-31T04:01:23;11.30;99.90
3996;DHT22;2012;49.794;9.722;2023-05-31T04:03:50;11.20;99.90
3996;DHT22;2012;49.794;9.722;2023-05-31T04:06:17;11.10;99.90
3996;DHT22;2012;49.794;9.722;2023-05-31T04:08:45;11.20;99.90
3996;DHT22;2012;49.794;9.722;2023-05-31T04:11:12;11.10;99.90
3996;DHT22;2012;49.794;9.722;2023-05-31T04:13:39;11.40;99.90
3996;DHT22;2012;49.794;9.722;2023-05-31T04:16:06;11.50;99.90
3996;DHT22;2012;49.794;9.722;2023-05-31T04:18:33;11.50;99.90
3996;DHT22;2012;49.794;9.722;2023-05-31T04:21:01;11.40;99.90
3996;DHT22;2012;49.794;9.722;2023-05-31T04:23:29;11.40;99.90
3996;DHT22;2012;49.794;9.722;2023-05-31T04:25:57;11.50;99.90
3996;DHT22;2012;49.794;9.722;2023-05-31T04:28:24;11.70;99.90
3996;DHT22;2012;49.794;9.722;2023-05-31T04:30:52;11.80;99.90
3996;DHT22;2012;49.794;9.722;2023-05-31T04:33:19;11.80;99.90
3996;DHT22;2012;49.794;9.722;2023-05-31T04:35:46;11.80;99.90
3996;DHT22;2012;49.794;9.722;2023-05-31T04:38:13;11.80;99.90
3996;DHT22;2012;49.794;9.722;2023-05-31T04:40:44;11.80;99.90
3996;DHT22;2012;49.794;9.722;2023-05-31T04:43:11;11.90;99.90
3996;DHT22;2012;49.794;9.722;2023-05-31T04:45:38;11.80;99.90
3996;DHT22;2012;49.794;9.722;2023-05-31T04:48:05;12.00;99.90
3996;DHT22;2012;49.794;9.722;2023-05-31T04:50:32;12.10;99.90
3996;DHT22;2012;49.794;9.722;2023-05-31T04:53:00;12.20;99.90
3996;DHT22;2012;49.794;9.722;2023-05-31T04:55:28;12.20;99.90
3996;DHT22;2012;49.794;9.722;2023-05-31T04:57:58;12.20;99.90
3996;DHT22;2012;49.794;9.722;2023-05-31T05:00:26;12.20;99.90
3996;DHT22;2012;49.794;9.722;2023-05-31T05:03:01;12.40;99.90
3996;DHT22;2012;49.794;9.722;2023-05-31T05:05:29;12.50;99.90
3996;DHT22;2012;49.794;9.722;2023-05-31T05:07:56;12.60;99.90
3996;DHT22;2012;49.794;9.722;2023-05-31T05:10:24;12.60;99.90
3996;DHT22;2012;49.794;9.722;2023-05-31T05:12:51;12.70;99.90
3996;DHT22;2012;49.794;9.722;2023-05-31T05:15:18;12.70;99.90
3996;DHT22;2012;49.794;9.722;2023-05-31T05:17:45;12.80;99.90
3996;DHT22;2012;49.794;9.722;2023-05-31T05:20:14;13.00;99.90
3996;DHT22;2012;49.794;9.722;2023-05-31T05:22:49;13.10;99.90
3996;DHT22;2012;49.794;9.722;2023-05-31T05:25:18;13.10;99.90
3996;DHT22;2012;49.794;9.722;2023-05-31T05:27:48;13.20;99.90
3996;DHT22;2012;49.794;9.722;2023-05-31T05:30:15;13.30;99.90
3996;DHT22;2012;49.794;9.722;2023-05-31T05:32:42;13.40;99.90
3996;DHT22;2012;49.794;9.722;2023-05-31T05:35:10;13.50;99.90
3996;DHT22;2012;49.794;9.722;2023-05-31T05:37:37;13.60;99.90
3996;DHT22;2012;49.794;9.722;2023-05-31T05:40:05;13.70;99.90
3996;DHT22;2012;49.794;9.722;2023-05-31T05:42:34;13.70;99.90
3996;DHT22;2012;49.794;9.722;2023-05-31T05:45:05;14.00;99.90
3996;DHT22;2012;49.794;9.722;2023-05-31T05:47:36;14.00;99.90
3996;DHT22;2012;49.794;9.722;2023-05-31T05:50:04;14.10;99.90
3996;DHT22;2012;49.794;9.722;2023-05-31T05:52:32;14.20;99.90
3996;DHT22;2012;49.794;9.722;2023-05-31T05:54:59;14.30;99.90
3996;DHT22;2012;49.794;9.722;2023-05-31T05:57:27;14.30;99.90
3996;DHT22;2012;49.794;9.722;2023-05-31T06:00:03;14.50;99.90
3996;DHT22;2012;49.794;9.722;2023-05-31T06:02:50;14.40;99.90
3996;DHT22;2012;49.794;9.722;2023-05-31T06:05:17;14.50;99.90
3996;DHT22;2012;49.794;9.722;2023-05-31T06:07:45;14.50;99.90
3996;DHT22;2012;49.794;9.722;2023-05-31T06:10:12;14.70;99.90
3996;DHT22;2012;49.794;9.722;2023-05-31T06:12:39;14.80;99.90
3996;DHT22;2012;49.794;9.722;2023-05-31T06:15:07;14.90;99.90
3996;DHT22;2012;49.794;9.722;2023-05-31T06:17:34;15.10;99.90
3996;DHT22;2012;49.794;9.722;2023-05-31T06:20:02;15.20;99.90
3996;DHT22;2012;49.794;9.722;2023-05-31T06:22:32;15.30;99.90
3996;DHT22;2012;49.794;9.722;2023-05-31T06:24:59;15.50;99.90
3996;DHT22;2012;49.794;9.722;2023-05-31T06:27:26;15.50;99.90
3996;DHT22;2012;49.794;9.722;2023-05-31T06:29:53;15.60;99.90
3996;DHT22;2012;49.794;9.722;2023-05-31T06:32:33;15.70;99.90
3996;DHT22;2012;49.794;9.722;2023-05-31T06:35:00;15.80;99.90
3996;DHT22;2012;49.794;9.722;2023-05-31T06:37:27;15.90;99.90
3996;DHT22;2012;49.794;9.722;2023-05-31T06:39:54;15.90;99.90
3996;DHT22;2012;49.794;9.722;2023-05-31T06:42:21;16.10;99.90
3996;DHT22;2012;49.794;9.722;2023-05-31T06:44:54;16.20;99.90
3996;DHT22;2012;49.794;9.722;2023-05-31T06:47:48;16.20;99.90
3996;DHT22;2012;49.794;9.722;2023-05-31T06:50:21;16.30;99.90
3996;DHT22;2012;49.794;9.722;2023-05-31T06:53:08;16.40;99.90
3996;DHT22;2012;49.794;9.722;2023-05-31T06:55:41;16.60;99.40
3996;DHT22;2012;49.794;9.722;2023-05-31T06:58:13;16.70;99.30
3996;DHT22;2012;49.794;9.722;2023-05-31T07:00:40;16.70;98.30
3996;DHT22;2012;49.794;9.722;2023-05-31T07:03:07;16.80;98.10
3996;DHT22;2012;49.794;9.722;2023-05-31T07:05:35;16.90;97.90
3996;DHT22;2012;49.794;9.722;2023-05-31T07:08:03;16.90;97.40
3996;DHT22;2012;49.794;9.722;2023-05-31T07:10:34;17.00;97.20
3996;DHT22;2012;49.794;9.722;2023-05-31T07:13:01;17.20;95.70
3996;DHT22;2012;49.794;9.722;2023-05-31T07:15:29;17.20;96.00
3996;DHT22;2012;49.794;9.722;2023-05-31T07:17:55;17.30;95.90
3996;DHT22;2012;49.794;9.722;2023-05-31T07:20:23;17.50;94.80
3996;DHT22;2012;49.794;9.722;2023-05-31T07:22:50;17.60;95.10
3996;DHT22;2012;49.794;9.722;2023-05-31T07:25:18;17.70;95.20
3996;DHT22;2012;49.794;9.722;2023-05-31T07:27:45;17.70;93.50
3996;DHT22;2012;49.794;9.722;2023-05-31T07:30:12;17.70;93.30
3996;DHT22;2012;49.794;9.722;2023-05-31T07:32:38;17.90;93.40
3996;DHT22;2012;49.794;9.722;2023-05-31T07:35:06;18.00;92.80
3996;DHT22;2012;49.794;9.722;2023-05-31T07:37:33;18.00;92.30
3996;DHT22;2012;49.794;9.722;2023-05-31T07:40:00;18.10;93.00
3996;DHT22;2012;49.794;9.722;2023-05-31T07:42:27;18.20;91.20
3996;DHT22;2012;49.794;9.722;2023-05-31T07:44:55;18.30;92.60
3996;DHT22;2012;49.794;9.722;2023-05-31T07:47:22;18.50;91.90
3996;DHT22;2012;49.794;9.722;2023-05-31T07:49:49;18.60;91.60
3996;DHT22;2012;49.794;9.722;2023-05-31T07:52:18;18.80;89.60
3996;DHT22;2012;49.794;9.722;2023-05-31T07:54:49;18.70;90.60
3996;DHT22;2012;49.794;9.722;2023-05-31T07:57:16;18.80;90.70
3996;DHT22;2012;49.794;9.722;2023-05-31T07:59:44;18.90;90.00
3996;DHT22;2012;49.794;9.722;2023-05-31T08:02:11;19.00;89.70
3996;DHT22;2012;49.794;9.722;2023-05-31T08:04:38;19.00;90.70
3996;DHT22;2012;49.794;9.722;2023-05-31T08:07:05;19.30;90.20
3996;DHT22;2012;49.794;9.722;2023-05-31T08:09:33;19.30;88.80
3996;DHT22;2012;49.794;9.722;2023-05-31T08:12:00;19.60;86.70
3996;DHT22;2012;49.794;9.722;2023-05-31T08:14:29;19.50;84.30
3996;DHT22;2012;49.794;9.722;2023-05-31T08:16:56;19.60;83.40
3996;DHT22;2012;49.794;9.722;2023-05-31T08:19:23;19.50;83.50
3996;DHT22;2012;49.794;9.722;2023-05-31T08:21:51;19.70;82.40
3996;DHT22;2012;49.794;9.722;2023-05-31T08:24:18;19.80;81.30
3996;DHT22;2012;49.794;9.722;2023-05-31T08:26:45;19.90;82.30
3996;DHT22;2012;49.794;9.722;2023-05-31T08:29:12;19.90;81.90
3996;DHT22;2012;49.794;9.722;2023-05-31T08:31:39;20.00;81.40
3996;DHT22;2012;49.794;9.722;2023-05-31T08:34:06;20.10;78.90
3996;DHT22;2012;49.794;9.722;2023-05-31T08:36:33;20.20;79.40
3996;DHT22;2012;49.794;9.722;2023-05-31T08:39:01;20.40;79.80
3996;DHT22;2012;49.794;9.722;2023-05-31T08:41:31;20.60;78.00
3996;DHT22;2012;49.794;9.722;2023-05-31T08:44:02;20.40;75.70
3996;DHT22;2012;49.794;9.722;2023-05-31T08:46:31;20.50;76.30
3996;DHT22;2012;49.794;9.722;2023-05-31T08:49:10;20.50;77.30
3996;DHT22;2012;49.794;9.722;2023-05-31T08:51:38;20.60;77.80
3996;DHT22;2012;49.794;9.722;2023-05-31T08:54:06;20.80;73.50
3996;DHT22;2012;49.794;9.722;2023-05-31T08:56:35;20.90;73.60
3996;DHT22;2012;49.794;9.722;2023-05-31T08:59:07;20.90;73.40
3996;DHT22;2012;49.794;9.722;2023-05-31T09:01:37;21.10;73.90
3996;DHT22;2012;49.794;9.722;2023-05-31T09:04:04;21.10;74.20
3996;DHT22;2012;49.794;9.722;2023-05-31T09:06:34;21.10;72.60
3996;DHT22;2012;49.794;9.722;2023-05-31T09:09:02;21.20;74.40
3996;DHT22;2012;49.794;9.722;2023-05-31T09:11:29;21.20;72.80
3996;DHT22;2012;49.794;9.722;2023-05-31T09:13:56;21.50;72.70
3996;DHT22;2012;49.794;9.722;2023-05-31T09:16:23;21.60;70.90
3996;DHT22;2012;49.794;9.722;2023-05-31T09:19:00;21.80;68.80
3996;DHT22;2012;49.794;9.722;2023-05-31T09:21:28;21.90;63.90
3996;DHT22;2012;49.794;9.722;2023-05-31T09:23:57;21.60;60.80
3996;DHT22;2012;49.794;9.722;2023-05-31T09:26:24;21.90;61.20
3996;DHT22;2012;49.794;9.722;2023-05-31T09:28:53;21.90;61.30
3996;DHT22;2012;49.794;9.722;2023-05-31T09:31:20;22.10;59.80
3996;DHT22;2012;49.794;9.722;2023-05-31T09:33:48;22.00;57.50
3996;DHT22;2012;49.794;9.722;2023-05-31T09:36:24;22.10;56.80
3996;DHT22;2012;49.794;9.722;2023-05-31T09:39:01;22.20;59.90
3996;DHT22;2012;49.794;9.722;2023-05-31T09:41:31;22.30;59.30
3996;DHT22;2012;49.794;9.722;2023-05-31T09:43:58;22.60;58.60
3996;DHT22;2012;49.794;9.722;2023-05-31T09:46:25;22.80;59.10
3996;DHT22;2012;49.794;9.722;2023-05-31T09:49:04;22.80;59.10
3996;DHT22;2012;49.794;9.722;2023-05-31T09:51:31;23.00;56.70
3996;DHT22;2012;49.794;9.722;2023-05-31T09:54:08;23.00;56.20
3996;DHT22;2012;49.794;9.722;2023-05-31T09:56:37;22.90;56.00
3996;DHT22;2012;49.794;9.722;2023-05-31T09:59:05;23.00;57.00
3996;DHT22;2012;49.794;9.722;2023-05-31T10:01:32;23.00;57.60
3996;DHT22;2012;49.794;9.722;2023-05-31T10:04:04;23.20;57.80
3996;DHT22;2012;49.794;9.722;2023-05-31T10:06:33;23.20;56.20
3996;DHT22;2012;49.794;9.722;2023-05-31T10:09:04;23.20;56.80
3996;DHT22;2012;49.794;9.722;2023-05-31T10:11:38;23.00;55.80
3996;DHT22;2012;49.794;9.722;2023-05-31T10:14:23;23.30;56.50
3996;DHT22;2012;49.794;9.722;2023-05-31T10:16:54;23.70;57.00
3996;DHT22;2012;49.794;9.722;2023-05-31T10:19:44;23.50;54.60
3996;DHT22;2012;49.794;9.722;2023-05-31T10:22:14;23.50;56.50
3996;DHT22;2012;49.794;9.722;2023-05-31T10:24:52;23.40;55.80
3996;DHT22;2012;49.794;9.722;2023-05-31T10:27:27;23.80;55.90
3996;DHT22;2012;49.794;9.722;2023-05-31T10:29:56;23.80;55.70
3996;DHT22;2012;49.794;9.722;2023-05-31T10:32:58;23.80;56.10
3996;DHT22;2012;49.794;9.722;2023-05-31T10:35:26;24.00;54.50
3996;DHT22;2012;49.794;9.722;2023-05-31T10:37:54;24.10;54.00
3996;DHT22;2012;49.794;9.722;2023-05-31T10:46:16;24.10;52.10
3996;DHT22;2012;49.794;9.722;2023-05-31T10:48:53;24.30;54.30
3996;DHT22;2012;49.794;9.722;2023-05-31T10:54:04;24.40;53.90
3996;DHT22;2012;49.794;9.722;2023-05-31T10:56:31;24.50;54.20
3996;DHT22;2012;49.794;9.722;2023-05-31T10:58:58;24.70;53.50
3996;DHT22;2012;49.794;9.722;2023-05-31T11:01:28;24.90;52.40
3996;DHT22;2012;49.794;9.722;2023-05-31T11:03:56;25.20;52.90
3996;DHT22;2012;49.794;9.722;2023-05-31T11:06:31;25.40;50.40
3996;DHT22;2012;49.794;9.722;2023-05-31T11:19:21;25.30;50.40
3996;DHT22;2012;49.794;9.722;2023-05-31T11:21:52;25.30;49.30
3996;DHT22;2012;49.794;9.722;2023-05-31T11:27:11;25.50;47.00
3996;DHT22;2012;49.794;9.722;2023-05-31T11:32:11;25.50;51.30
3996;DHT22;2012;49.794;9.722;2023-05-31T11:37:35;25.50;47.90
3996;DHT22;2012;49.794;9.722;2023-05-31T11:42:36;25.80;46.30
3996;DHT22;2012;49.794;9.722;2023-05-31T11:45:08;25.90;45.90
3996;DHT22;2012;49.794;9.722;2023-05-31T11:50:18;26.00;46.60
3996;DHT22;2012;49.794;9.722;2023-05-31T11:52:45;26.10;45.00
3996;DHT22;2012;49.794;9.722;2023-05-31T11:55:15;26.30;45.90
3996;DHT22;2012;49.794;9.722;2023-05-31T11:57:45;26.40;46.10
3996;DHT22;2012;49.794;9.722;2023-05-31T12:00:16;26.40;45.40
3996;DHT22;2012;49.794;9.722;2023-05-31T12:02:52;26.60;45.20
3996;DHT22;2012;49.794;9.722;2023-05-31T12:05:20;26.50;42.50
3996;DHT22;2012;49.794;9.722;2023-05-31T12:07:52;26.50;42.60
3996;DHT22;2012;49.794;9.722;2023-05-31T12:10:20;26.50;43.50
3996;DHT22;2012;49.794;9.722;2023-05-31T12:12:47;26.70;43.80
3996;DHT22;2012;49.794;9.722;2023-05-31T12:15:16;26.70;43.90
3996;DHT22;2012;49.794;9.722;2023-05-31T12:17:43;26.80;43.70
3996;DHT22;2012;49.794;9.722;2023-05-31T12:20:11;26.60;43.30
3996;DHT22;2012;49.794;9.722;2023-05-31T12:22:41;26.60;43.50
3996;DHT22;2012;49.794;9.722;2023-05-31T12:25:08;26.60;44.00
3996;DHT22;2012;49.794;9.722;2023-05-31T12:27:36;26.80;44.10
3996;DHT22;2012;49.794;9.722;2023-05-31T12:30:16;27.00;45.40
3996;DHT22;2012;49.794;9.722;2023-05-31T12:32:46;26.90;42.10
3996;DHT22;2012;49.794;9.722;2023-05-31T12:35:14;26.90;42.70
3996;DHT22;2012;49.794;9.722;2023-05-31T12:37:41;26.90;42.80
3996;DHT22;2012;49.794;9.722;2023-05-31T12:40:16;27.00;42.70
3996;DHT22;2012;49.794;9.722;2023-05-31T12:42:49;27.10;41.70
3996;DHT22;2012;49.794;9.722;2023-05-31T12:45:17;27.20;41.50
3996;DHT22;2012;49.794;9.722;2023-05-31T12:47:45;27.00;40.90
3996;DHT22;2012;49.794;9.722;2023-05-31T12:50:22;27.10;41.10
3996;DHT22;2012;49.794;9.722;2023-05-31T12:52:56;26.90;40.60
3996;DHT22;2012;49.794;9.722;2023-05-31T12:55:24;27.00;41.10
3996;DHT22;2012;49.794;9.722;2023-05-31T12:57:51;26.90;42.00
3996;DHT22;2012;49.794;9.722;2023-05-31T13:00:20;27.30;42.90
3996;DHT22;2012;49.794;9.722;2023-05-31T13:02:47;27.30;43.60
3996;DHT22;2012;49.794;9.722;2023-05-31T13:05:17;27.30;41.30
3996;DHT22;2012;49.794;9.722;2023-05-31T13:07:44;27.30;41.30
3996;DHT22;2012;49.794;9.722;2023-05-31T13:10:12;27.60;41.80
3996;DHT22;2012;49.794;9.722;2023-05-31T13:12:41;27.70;40.80
3996;DHT22;2012;49.794;9.722;2023-05-31T13:15:08;27.70;41.40
3996;DHT22;2012;49.794;9.722;2023-05-31T13:17:35;27.70;40.90
3996;DHT22;2012;49.794;9.722;2023-05-31T13:20:02;27.80;40.20
3996;DHT22;2012;49.794;9.722;2023-05-31T13:22:41;27.70;41.10
3996;DHT22;2012;49.794;9.722;2023-05-31T13:25:08;27.70;40.20
3996;DHT22;2012;49.794;9.722;2023-05-31T13:27:35;27.60;40.60
3996;DHT22;2012;49.794;9.722;2023-05-31T13:30:03;27.70;40.20
3996;DHT22;2012;49.794;9.722;2023-05-31T13:32:30;28.10;41.80
3996;DHT22;2012;49.794;9.722;2023-05-31T13:34:57;28.10;40.60
3996;DHT22;2012;49.794;9.722;2023-05-31T13:37:27;28.00;39.60
3996;DHT22;2012;49.794;9.722;2023-05-31T13:39:54;27.90;38.80
3996;DHT22;2012;49.794;9.722;2023-05-31T13:42:22;28.10;39.70
3996;DHT22;2012;49.794;9.722;2023-05-31T13:44:50;27.90;38.60
3996;DHT22;2012;49.794;9.722;2023-05-31T13:47:17;28.10;40.10
3996;DHT22;2012;49.794;9.722;2023-05-31T13:49:44;28.20;39.30
3996;DHT22;2012;49.794;9.722;2023-05-31T13:52:11;28.10;38.20
3996;DHT22;2012;49.794;9.722;2023-05-31T13:54:41;28.00;37.80
3996;DHT22;2012;49.794;9.722;2023-05-31T13:57:08;28.30;39.40
3996;DHT22;2012;49.794;9.722;2023-05-31T13:59:35;28.00;38.00
3996;DHT22;2012;49.794;9.722;2023-05-31T14:02:02;27.80;37.30
3996;DHT22;2012;49.794;9.722;2023-05-31T14:04:30;28.00;39.10
3996;DHT22;2012;49.794;9.722;2023-05-31T14:06:57;27.90;37.80
3996;DHT22;2012;49.794;9.722;2023-05-31T14:09:24;27.80;37.60
3996;DHT22;2012;49.794;9.722;2023-05-31T14:11:51;28.30;39.40
3996;DHT22;2012;49.794;9.722;2023-05-31T14:14:18;27.90;39.70
3996;DHT22;2012;49.794;9.722;2023-05-31T14:16:45;28.10;39.10
3996;DHT22;2012;49.794;9.722;2023-05-31T14:19:13;27.90;37.50
3996;DHT22;2012;49.794;9.722;2023-05-31T14:21:39;27.90;37.40
3996;DHT22;2012;49.794;9.722;2023-05-31T14:24:09;28.30;38.20
3996;DHT22;2012;49.794;9.722;2023-05-31T14:26:36;28.00;36.80
3996;DHT22;2012;49.794;9.722;2023-05-31T14:29:03;28.00;36.90
3996;DHT22;2012;49.794;9.722;2023-05-31T14:31:31;28.10;37.80
3996;DHT22;2012;49.794;9.722;2023-05-31T14:33:58;28.00;37.10
3996;DHT22;2012;49.794;9.722;2023-05-31T14:36:25;27.90;36.80
3996;DHT22;2012;49.794;9.722;2023-05-31T14:38:53;28.00;37.00
3996;DHT22;2012;49.794;9.722;2023-05-31T14:41:20;27.90;37.30
3996;DHT22;2012;49.794;9.722;2023-05-31T14:43:47;28.00;37.40
3996;DHT22;2012;49.794;9.722;2023-05-31T14:46:15;27.70;37.10
3996;DHT22;2012;49.794;9.722;2023-05-31T14:48:42;27.80;37.70
3996;DHT22;2012;49.794;9.722;2023-05-31T14:51:09;27.80;36.60
3996;DHT22;2012;49.794;9.722;2023-05-31T14:53:36;28.20;37.80
3996;DHT22;2012;49.794;9.722;2023-05-31T14:56:03;27.80;36.80
3996;DHT22;2012;49.794;9.722;2023-05-31T14:58:42;27.90;38.00
3996;DHT22;2012;49.794;9.722;2023-05-31T15:01:12;27.90;36.90
3996;DHT22;2012;49.794;9.722;2023-05-31T15:03:39;28.20;38.50
3996;DHT22;2012;49.794;9.722;2023-05-31T15:06:07;28.20;38.40
3996;DHT22;2012;49.794;9.722;2023-05-31T15:08:33;28.50;37.40
3996;DHT22;2012;49.794;9.722;2023-05-31T15:11:02;28.30;38.00
3996;DHT22;2012;49.794;9.722;2023-05-31T15:13:29;28.30;38.80
3996;DHT22;2012;49.794;9.722;2023-05-31T15:15:56;27.90;37.60
3996;DHT22;2012;49.794;9.722;2023-05-31T15:18:23;27.80;38.60
3996;DHT22;2012;49.794;9.722;2023-05-31T15:20:50;28.10;38.70
3996;DHT22;2012;49.794;9.722;2023-05-31T15:23:18;28.00;38.60
3996;DHT22;2012;49.794;9.722;2023-05-31T15:25:45;28.30;38.30
3996;DHT22;2012;49.794;9.722;2023-05-31T15:28:12;28.10;38.10
3996;DHT22;2012;49.794;9.722;2023-05-31T15:30:39;27.70;37.70
3996;DHT22;2012;49.794;9.722;2023-05-31T15:33:07;27.80;38.40
3996;DHT22;2012;49.794;9.722;2023-05-31T15:35:34;28.10;37.40
3996;DHT22;2012;49.794;9.722;2023-05-31T15:38:01;28.00;37.90
3996;DHT22;2012;49.794;9.722;2023-05-31T15:40:29;27.90;37.30
3996;DHT22;2012;49.794;9.722;2023-05-31T15:42:56;28.30;37.80
3996;DHT22;2012;49.794;9.722;2023-05-31T15:45:22;28.10;39.00
3996;DHT22;2012;49.794;9.722;2023-05-31T15:47:50;27.70;37.60
3996;DHT22;2012;49.794;9.722;2023-05-31T15:50:17;27.70;37.00
3996;DHT22;2012;49.794;9.722;2023-05-31T15:52:44;27.70;37.00
3996;DHT22;2012;49.794;9.722;2023-05-31T15:55:11;27.70;37.50
3996;DHT22;2012;49.794;9.722;2023-05-31T15:57:38;27.70;37.60
3996;DHT22;2012;49.794;9.722;2023-05-31T16:00:05;27.50;37.60
3996;DHT22;2012;49.794;9.722;2023-05-31T16:02:37;27.30;37.10
3996;DHT22;2012;49.794;9.722;2023-05-31T16:05:04;27.10;37.40
3996;DHT22;2012;49.794;9.722;2023-05-31T16:07:34;27.60;38.20
3996;DHT22;2012;49.794;9.722;2023-05-31T16:10:01;27.50;38.70
3996;DHT22;2012;49.794;9.722;2023-05-31T16:12:29;27.40;38.50
3996;DHT22;2012;49.794;9.722;2023-05-31T16:14:56;27.30;39.00
3996;DHT22;2012;49.794;9.722;2023-05-31T16:17:25;27.30;38.80
3996;DHT22;2012;49.794;9.722;2023-05-31T16:19:52;27.10;38.60
3996;DHT22;2012;49.794;9.722;2023-05-31T16:22:19;27.10;39.70
3996;DHT22;2012;49.794;9.722;2023-05-31T16:24:46;27.00;38.90
3996;DHT22;2012;49.794;9.722;2023-05-31T16:27:14;26.90;38.90
3996;DHT22;2012;49.794;9.722;2023-05-31T16:29:41;26.90;38.90
3996;DHT22;2012;49.794;9.722;2023-05-31T16:32:08;27.00;39.10
3996;DHT22;2012;49.794;9.722;2023-05-31T16:34:34;27.00;39.60
3996;DHT22;2012;49.794;9.722;2023-05-31T16:37:01;27.00;38.80
3996;DHT22;2012;49.794;9.722;2023-05-31T16:39:30;26.70;39.00
3996;DHT22;2012;49.794;9.722;2023-05-31T16:41:58;26.60;40.40
3996;DHT22;2012;49.794;9.722;2023-05-31T16:44:25;26.80;40.30
3996;DHT22;2012;49.794;9.722;2023-05-31T16:46:52;27.00;40.40